sensor_id;sensor_type;location;lat;lon;timestamp;temperature;humidity
5226;DHT22;2632;51.666;7.146;2022-10-17T00:00:37;17.50;91.50
5226;DHT22;2632;51.666;7.146;2022-10-17T00:03:04;17.50;91.50
5226;DHT22;2632;51.666;7.146;2022-10-17T00:05:31;17.40;91.50
5226;DHT22;2632;51.666;7.146;2022-10-17T00:07:57;17.50;91.50
5226;DHT22;2632;51.666;7.146;2022-10-17T00:10:24;17.50;91.50
5226;DHT22;2632;51.666;7.146;2022-10-17T00:12:51;17.50;91.50
5226;DHT22;2632;51.666;7.146;2022-10-17T00:15:19;17.50;91.50
5226;DHT22;2632;51.666;7.146;2022-10-17T00:17:46;17.50;91.50
5226;DHT22;2632;51.666;7.146;2022-10-17T00:20:12;17.50;91.50
5226;DHT22;2632;51.666;7.146;2022-10-17T00:22:39;17.50;91.50
5226;DHT22;2632;51.666;7.146;2022-10-17T00:25:06;17.50;91.50
5226;DHT22;2632;51.666;7.146;2022-10-17T00:27:37;17.50;91.50
5226;DHT22;2632;51.666;7.146;2022-10-17T00:30:06;17.50;91.50
5226;DHT22;2632;51.666;7.146;2022-10-17T00:32:33;17.50;91.50
5226;DHT22;2632;51.666;7.146;2022-10-17T00:34:59;17.50;91.50
5226;DHT22;2632;51.666;7.146;2022-10-17T00:37:26;17.50;91.50
5226;DHT22;2632;51.666;7.146;2022-10-17T00:39:53;17.50;91.50
5226;DHT22;2632;51.666;7.146;2022-10-17T00:42:19;17.50;91.50
5226;DHT22;2632;51.666;7.146;2022-10-17T00:47:16;17.50;91.50
5226;DHT22;2632;51.666;7.146;2022-10-17T00:49:44;17.50;91.50
5226;DHT22;2632;51.666;7.146;2022-10-17T00:52:14;17.50;91.50
5226;DHT22;2632;51.666;7.146;2022-10-17T00:54:48;17.50;91.50
5226;DHT22;2632;51.666;7.146;2022-10-17T00:57:15;17.50;91.50
5226;DHT22;2632;51.666;7.146;2022-10-17T00:59:47;17.50;91.50
5226;DHT22;2632;51.666;7.146;2022-10-17T01:02:17;17.50;91.50
5226;DHT22;2632;51.666;7.146;2022-10-17T01:04:46;17.50;91.50
5226;DHT22;2632;51.666;7.146;2022-10-17T01:07:13;17.50;91.50
5226;DHT22;2632;51.666;7.146;2022-10-17T01:09:40;17.50;91.50
5226;DHT22;2632;51.666;7.146;2022-10-17T01:15:02;17.50;91.50
5226;DHT22;2632;51.666;7.146;2022-10-17T01:26:24;17.50;91.50
5226;DHT22;2632;51.666;7.146;2022-10-17T01:29:10;17.40;91.50
5226;DHT22;2632;51.666;7.146;2022-10-17T01:31:44;17.50;91.50
5226;DHT22;2632;51.666;7.146;2022-10-17T01:34:20;17.50;91.50
5226;DHT22;2632;51.666;7.146;2022-10-17T01:36:55;17.50;91.50
5226;DHT22;2632;51.666;7.146;2022-10-17T01:39:34;17.50;91.50
5226;DHT22;2632;51.666;7.146;2022-10-17T01:42:12;17.50;91.50
5226;DHT22;2632;51.666;7.146;2022-10-17T01:44:57;17.50;91.50
5226;DHT22;2632;51.666;7.146;2022-10-17T01:47:30;17.50;91.50
5226;DHT22;2632;51.666;7.146;2022-10-17T01:50:05;17.50;91.50
5226;DHT22;2632;51.666;7.146;2022-10-17T01:52:37;17.50;91.50
5226;DHT22;2632;51.666;7.146;2022-10-17T01:55:17;17.50;91.50
5226;DHT22;2632;51.666;7.146;2022-10-17T01:57:48;17.50;91.50
5226;DHT22;2632;51.666;7.146;2022-10-17T02:00:19;17.50;91.50
5226;DHT22;2632;51.666;7.146;2022-10-17T02:02:47;17.50;91.50
5226;DHT22;2632;51.666;7.146;2022-10-17T02:05:17;17.50;91.50
5226;DHT22;2632;51.666;7.146;2022-10-17T02:07:45;17.50;91.50
5226;DHT22;2632;51.666;7.146;2022-10-17T02:10:26;17.50;91.40
5226;DHT22;2632;51.666;7.146;2022-10-17T02:13:16;17.50;91.40
5226;DHT22;2632;51.666;7.146;2022-10-17T02:16:07;17.50;91.40
5226;DHT22;2632;51.666;7.146;2022-10-17T02:18:51;17.50;91.40
5226;DHT22;2632;51.666;7.146;2022-10-17T02:21:30;17.50;91.40
5226;DHT22;2632;51.666;7.146;2022-10-17T02:24:19;17.50;91.40
5226;DHT22;2632;51.666;7.146;2022-10-17T02:26:58;17.50;91.40
5226;DHT22;2632;51.666;7.146;2022-10-17T02:29:45;17.50;91.40
5226;DHT22;2632;51.666;7.146;2022-10-17T02:32:21;17.50;91.40
5226;DHT22;2632;51.666;7.146;2022-10-17T02:34:54;17.50;91.50
5226;DHT22;2632;51.666;7.146;2022-10-17T02:37:26;17.50;91.50
5226;DHT22;2632;51.666;7.146;2022-10-17T02:39:56;17.50;91.50
5226;DHT22;2632;51.666;7.146;2022-10-17T02:42:25;17.50;91.50
5226;DHT22;2632;51.666;7.146;2022-10-17T02:44:53;17.50;91.50
5226;DHT22;2632;51.666;7.146;2022-10-17T02:47:21;17.50;91.50
5226;DHT22;2632;51.666;7.146;2022-10-17T02:49:53;17.50;91.50
5226;DHT22;2632;51.666;7.146;2022-10-17T02:52:51;17.50;91.50
5226;DHT22;2632;51.666;7.146;2022-10-17T02:55:18;17.50;91.50
5226;DHT22;2632;51.666;7.146;2022-10-17T02:58:06;17.50;91.50
5226;DHT22;2632;51.666;7.146;2022-10-17T03:00:33;17.50;91.50
5226;DHT22;2632;51.666;7.146;2022-10-17T03:03:00;17.50;91.40
5226;DHT22;2632;51.666;7.146;2022-10-17T03:05:28;17.50;91.40
5226;DHT22;2632;51.666;7.146;2022-10-17T03:07:55;17.50;91.50
5226;DHT22;2632;51.666;7.146;2022-10-17T03:10:22;17.50;91.40
5226;DHT22;2632;51.666;7.146;2022-10-17T03:12:49;17.50;91.40
5226;DHT22;2632;51.666;7.146;2022-10-17T03:15:15;17.50;91.40
5226;DHT22;2632;51.666;7.146;2022-10-17T03:17:42;17.50;91.40
5226;DHT22;2632;51.666;7.146;2022-10-17T03:20:08;17.50;91.40
5226;DHT22;2632;51.666;7.146;2022-10-17T03:22:35;17.50;91.30
5226;DHT22;2632;51.666;7.146;2022-10-17T03:25:02;17.60;91.30
5226;DHT22;2632;51.666;7.146;2022-10-17T03:27:28;17.60;91.30
5226;DHT22;2632;51.666;7.146;2022-10-17T03:29:55;17.60;91.30
5226;DHT22;2632;51.666;7.146;2022-10-17T03:32:22;17.60;91.30
5226;DHT22;2632;51.666;7.146;2022-10-17T03:34:48;17.60;91.40
5226;DHT22;2632;51.666;7.146;2022-10-17T03:37:15;17.50;91.30
5226;DHT22;2632;51.666;7.146;2022-10-17T03:39:41;17.60;91.30
5226;DHT22;2632;51.666;7.146;2022-10-17T03:42:08;17.60;91.30
5226;DHT22;2632;51.666;7.146;2022-10-17T03:44:35;17.60;91.60
5226;DHT22;2632;51.666;7.146;2022-10-17T03:47:01;17.60;91.30
5226;DHT22;2632;51.666;7.146;2022-10-17T03:49:28;17.60;91.30
5226;DHT22;2632;51.666;7.146;2022-10-17T03:51:54;17.50;91.40
5226;DHT22;2632;51.666;7.146;2022-10-17T03:54:21;17.50;91.30
5226;DHT22;2632;51.666;7.146;2022-10-17T03:56:47;17.50;91.30
5226;DHT22;2632;51.666;7.146;2022-10-17T03:59:14;17.50;91.30
5226;DHT22;2632;51.666;7.146;2022-10-17T04:01:41;17.50;91.30
5226;DHT22;2632;51.666;7.146;2022-10-17T04:04:08;17.50;91.40
5226;DHT22;2632;51.666;7.146;2022-10-17T04:06:35;17.50;91.30
5226;DHT22;2632;51.666;7.146;2022-10-17T04:09:03;17.50;91.30
5226;DHT22;2632;51.666;7.146;2022-10-17T04:11:29;17.60;91.30
5226;DHT22;2632;51.666;7.146;2022-10-17T04:13:57;17.60;91.30
5226;DHT22;2632;51.666;7.146;2022-10-17T04:16:24;17.60;91.30
5226;DHT22;2632;51.666;7.146;2022-10-17T04:18:53;17.50;91.30
5226;DHT22;2632;51.666;7.146;2022-10-17T04:21:21;17.60;91.30
5226;DHT22;2632;51.666;7.146;2022-10-17T04:23:52;17.60;91.30
5226;DHT22;2632;51.666;7.146;2022-10-17T04:26:19;17.60;91.30
5226;DHT22;2632;51.666;7.146;2022-10-17T04:28:45;17.60;91.20
5226;DHT22;2632;51.666;7.146;2022-10-17T04:31:13;17.60;91.20
5226;DHT22;2632;51.666;7.146;2022-10-17T04:33:40;17.50;91.80
5226;DHT22;2632;51.666;7.146;2022-10-17T04:36:11;17.10;92.60
5226;DHT22;2632;51.666;7.146;2022-10-17T04:38:38;16.70;93.40
5226;DHT22;2632;51.666;7.146;2022-10-17T04:41:08;16.50;94.00
5226;DHT22;2632;51.666;7.146;2022-10-17T04:43:36;16.30;94.50
5226;DHT22;2632;51.666;7.146;2022-10-17T04:46:09;16.30;94.90
5226;DHT22;2632;51.666;7.146;2022-10-17T04:48:37;16.20;94.90
5226;DHT22;2632;51.666;7.146;2022-10-17T04:51:15;16.10;95.00
5226;DHT22;2632;51.666;7.146;2022-10-17T04:53:43;16.20;95.30
5226;DHT22;2632;51.666;7.146;2022-10-17T04:56:15;16.20;95.30
5226;DHT22;2632;51.666;7.146;2022-10-17T04:58:42;16.20;95.70
5226;DHT22;2632;51.666;7.146;2022-10-17T05:01:12;16.20;95.60
5226;DHT22;2632;51.666;7.146;2022-10-17T05:03:40;16.20;95.60
5226;DHT22;2632;51.666;7.146;2022-10-17T05:06:09;16.20;95.60
5226;DHT22;2632;51.666;7.146;2022-10-17T05:08:36;16.20;95.80
5226;DHT22;2632;51.666;7.146;2022-10-17T05:11:03;16.20;95.80
5226;DHT22;2632;51.666;7.146;2022-10-17T05:13:31;16.20;95.60
5226;DHT22;2632;51.666;7.146;2022-10-17T05:15:59;16.10;95.80
5226;DHT22;2632;51.666;7.146;2022-10-17T05:18:27;16.30;95.90
5226;DHT22;2632;51.666;7.146;2022-10-17T05:20:54;16.60;95.10
5226;DHT22;2632;51.666;7.146;2022-10-17T05:23:21;16.80;94.40
5226;DHT22;2632;51.666;7.146;2022-10-17T05:25:52;16.90;93.90
5226;DHT22;2632;51.666;7.146;2022-10-17T05:28:19;17.00;93.60
5226;DHT22;2632;51.666;7.146;2022-10-17T05:30:45;17.10;93.50
5226;DHT22;2632;51.666;7.146;2022-10-17T05:33:12;17.20;93.30
5226;DHT22;2632;51.666;7.146;2022-10-17T05:35:38;17.30;93.00
5226;DHT22;2632;51.666;7.146;2022-10-17T05:38:05;17.30;92.90
5226;DHT22;2632;51.666;7.146;2022-10-17T05:40:32;17.40;92.90
5226;DHT22;2632;51.666;7.146;2022-10-17T05:42:59;17.40;92.80
5226;DHT22;2632;51.666;7.146;2022-10-17T05:45:25;17.40;92.70
5226;DHT22;2632;51.666;7.146;2022-10-17T05:47:52;17.50;92.70
5226;DHT22;2632;51.666;7.146;2022-10-17T05:50:18;17.50;92.60
5226;DHT22;2632;51.666;7.146;2022-10-17T05:52:47;17.50;92.70
5226;DHT22;2632;51.666;7.146;2022-10-17T05:57:44;17.70;92.70
5226;DHT22;2632;51.666;7.146;2022-10-17T06:00:11;17.60;92.50
5226;DHT22;2632;51.666;7.146;2022-10-17T06:02:38;17.60;92.40
5226;DHT22;2632;51.666;7.146;2022-10-17T06:05:05;17.50;92.30
5226;DHT22;2632;51.666;7.146;2022-10-17T06:07:31;17.20;93.80
5226;DHT22;2632;51.666;7.146;2022-10-17T06:09:58;17.50;92.30
5226;DHT22;2632;51.666;7.146;2022-10-17T06:12:24;17.50;92.30
5226;DHT22;2632;51.666;7.146;2022-10-17T06:14:51;17.50;92.40
5226;DHT22;2632;51.666;7.146;2022-10-17T06:17:18;17.40;93.00
5226;DHT22;2632;51.666;7.146;2022-10-17T06:19:44;17.50;92.20
5226;DHT22;2632;51.666;7.146;2022-10-17T06:22:11;17.50;92.30
5226;DHT22;2632;51.666;7.146;2022-10-17T06:24:38;17.50;92.20
5226;DHT22;2632;51.666;7.146;2022-10-17T06:27:04;17.50;92.40
5226;DHT22;2632;51.666;7.146;2022-10-17T06:29:37;17.50;92.20
5226;DHT22;2632;51.666;7.146;2022-10-17T06:32:04;17.50;92.30
5226;DHT22;2632;51.666;7.146;2022-10-17T06:34:34;17.50;92.20
5226;DHT22;2632;51.666;7.146;2022-10-17T06:37:00;17.50;92.20
5226;DHT22;2632;51.666;7.146;2022-10-17T06:39:27;17.50;92.20
5226;DHT22;2632;51.666;7.146;2022-10-17T06:42:00;17.50;92.50
5226;DHT22;2632;51.666;7.146;2022-10-17T06:44:26;17.50;92.30
5226;DHT22;2632;51.666;7.146;2022-10-17T06:46:57;17.50;92.50
5226;DHT22;2632;51.666;7.146;2022-10-17T06:49:24;17.50;92.40
5226;DHT22;2632;51.666;7.146;2022-10-17T06:51:51;17.50;92.40
5226;DHT22;2632;51.666;7.146;2022-10-17T06:54:18;17.50;92.70
5226;DHT22;2632;51.666;7.146;2022-10-17T06:56:44;17.50;92.70
5226;DHT22;2632;51.666;7.146;2022-10-17T06:59:11;17.50;92.40
5226;DHT22;2632;51.666;7.146;2022-10-17T07:01:37;17.50;92.70
5226;DHT22;2632;51.666;7.146;2022-10-17T07:04:08;17.50;92.60
5226;DHT22;2632;51.666;7.146;2022-10-17T07:06:35;17.50;92.50
5226;DHT22;2632;51.666;7.146;2022-10-17T07:09:03;17.50;92.50
5226;DHT22;2632;51.666;7.146;2022-10-17T07:11:32;17.50;92.20
5226;DHT22;2632;51.666;7.146;2022-10-17T07:14:35;17.50;92.40
5226;DHT22;2632;51.666;7.146;2022-10-17T07:17:02;17.60;92.20
5226;DHT22;2632;51.666;7.146;2022-10-17T07:19:29;17.50;92.20
5226;DHT22;2632;51.666;7.146;2022-10-17T07:21:55;17.50;94.10
5226;DHT22;2632;51.666;7.146;2022-10-17T07:24:22;17.40;94.50
5226;DHT22;2632;51.666;7.146;2022-10-17T07:26:48;17.40;94.70
5226;DHT22;2632;51.666;7.146;2022-10-17T07:29:15;17.40;95.00
5226;DHT22;2632;51.666;7.146;2022-10-17T07:34:10;17.40;95.10
5226;DHT22;2632;51.666;7.146;2022-10-17T07:36:37;17.40;95.40
5226;DHT22;2632;51.666;7.146;2022-10-17T07:39:03;17.50;95.10
5226;DHT22;2632;51.666;7.146;2022-10-17T07:41:30;17.50;95.40
5226;DHT22;2632;51.666;7.146;2022-10-17T07:43:57;17.50;95.70
5226;DHT22;2632;51.666;7.146;2022-10-17T07:46:23;17.50;95.50
5226;DHT22;2632;51.666;7.146;2022-10-17T07:48:50;17.60;95.20
5226;DHT22;2632;51.666;7.146;2022-10-17T07:51:17;17.70;95.10
5226;DHT22;2632;51.666;7.146;2022-10-17T07:53:45;17.60;95.40
5226;DHT22;2632;51.666;7.146;2022-10-17T07:56:14;17.70;94.50
5226;DHT22;2632;51.666;7.146;2022-10-17T07:58:41;17.70;93.60
5226;DHT22;2632;51.666;7.146;2022-10-17T08:01:09;17.70;94.10
5226;DHT22;2632;51.666;7.146;2022-10-17T08:03:42;17.80;94.50
5226;DHT22;2632;51.666;7.146;2022-10-17T08:11:07;17.90;94.10
5226;DHT22;2632;51.666;7.146;2022-10-17T08:13:34;17.80;94.20
5226;DHT22;2632;51.666;7.146;2022-10-17T08:16:03;17.80;94.10
5226;DHT22;2632;51.666;7.146;2022-10-17T08:18:30;17.90;94.50
5226;DHT22;2632;51.666;7.146;2022-10-17T08:21:00;18.00;94.30
5226;DHT22;2632;51.666;7.146;2022-10-17T08:23:28;18.10;94.20
5226;DHT22;2632;51.666;7.146;2022-10-17T08:25:58;18.00;94.20
5226;DHT22;2632;51.666;7.146;2022-10-17T08:28:25;18.10;94.10
5226;DHT22;2632;51.666;7.146;2022-10-17T08:30:52;18.20;94.20
5226;DHT22;2632;51.666;7.146;2022-10-17T08:33:19;18.30;93.60
5226;DHT22;2632;51.666;7.146;2022-10-17T08:35:45;18.30;94.10
5226;DHT22;2632;51.666;7.146;2022-10-17T08:38:12;18.30;93.50
5226;DHT22;2632;51.666;7.146;2022-10-17T08:40:39;18.30;93.70
5226;DHT22;2632;51.666;7.146;2022-10-17T08:45:53;18.30;94.30
5226;DHT22;2632;51.666;7.146;2022-10-17T08:48:23;18.30;93.30
5226;DHT22;2632;51.666;7.146;2022-10-17T08:50:59;18.30;93.80
5226;DHT22;2632;51.666;7.146;2022-10-17T08:53:45;18.30;94.00
5226;DHT22;2632;51.666;7.146;2022-10-17T08:56:24;18.30;93.90
5226;DHT22;2632;51.666;7.146;2022-10-17T08:59:17;18.30;94.40
5226;DHT22;2632;51.666;7.146;2022-10-17T09:01:51;18.40;93.70
5226;DHT22;2632;51.666;7.146;2022-10-17T09:15:52;18.70;94.10
5226;DHT22;2632;51.666;7.146;2022-10-17T09:18:36;18.70;94.20
5226;DHT22;2632;51.666;7.146;2022-10-17T09:23:56;18.60;93.70
5226;DHT22;2632;51.666;7.146;2022-10-17T09:26:36;18.60;94.40
5226;DHT22;2632;51.666;7.146;2022-10-17T09:29:14;18.70;93.70
5226;DHT22;2632;51.666;7.146;2022-10-17T09:31:46;18.70;94.20
5226;DHT22;2632;51.666;7.146;2022-10-17T09:34:15;18.80;93.80
5226;DHT22;2632;51.666;7.146;2022-10-17T09:36:47;18.70;94.00
5226;DHT22;2632;51.666;7.146;2022-10-17T09:39:19;18.70;93.90
5226;DHT22;2632;51.666;7.146;2022-10-17T09:41:50;18.60;94.00
5226;DHT22;2632;51.666;7.146;2022-10-17T09:44:24;18.50;94.00
5226;DHT22;2632;51.666;7.146;2022-10-17T09:49:35;18.40;94.00
5226;DHT22;2632;51.666;7.146;2022-10-17T09:52:04;18.40;94.00
5226;DHT22;2632;51.666;7.146;2022-10-17T09:54:40;18.40;94.10
5226;DHT22;2632;51.666;7.146;2022-10-17T09:57:09;18.30;94.30
5226;DHT22;2632;51.666;7.146;2022-10-17T09:59:42;18.30;94.20
5226;DHT22;2632;51.666;7.146;2022-10-17T10:02:16;18.30;94.20
5226;DHT22;2632;51.666;7.146;2022-10-17T10:05:04;18.30;94.20
5226;DHT22;2632;51.666;7.146;2022-10-17T10:07:38;18.30;94.20
5226;DHT22;2632;51.666;7.146;2022-10-17T10:10:07;18.30;94.30
5226;DHT22;2632;51.666;7.146;2022-10-17T10:13:15;18.30;94.20
5226;DHT22;2632;51.666;7.146;2022-10-17T10:15:45;18.30;94.20
5226;DHT22;2632;51.666;7.146;2022-10-17T10:23:41;18.20;94.30
5226;DHT22;2632;51.666;7.146;2022-10-17T10:28:55;18.20;94.40
5226;DHT22;2632;51.666;7.146;2022-10-17T10:31:41;18.20;94.30
5226;DHT22;2632;51.666;7.146;2022-10-17T10:42:00;18.30;94.10
5226;DHT22;2632;51.666;7.146;2022-10-17T10:44:29;18.30;94.40
5226;DHT22;2632;51.666;7.146;2022-10-17T10:47:13;18.20;94.20
5226;DHT22;2632;51.666;7.146;2022-10-17T10:49:41;18.30;94.10
5226;DHT22;2632;51.666;7.146;2022-10-17T10:52:14;18.20;94.20
5226;DHT22;2632;51.666;7.146;2022-10-17T10:54:58;18.30;94.40
5226;DHT22;2632;51.666;7.146;2022-10-17T10:57:29;18.30;94.10
5226;DHT22;2632;51.666;7.146;2022-10-17T11:00:10;18.30;94.10
5226;DHT22;2632;51.666;7.146;2022-10-17T11:02:48;18.20;94.10
5226;DHT22;2632;51.666;7.146;2022-10-17T11:07:59;18.30;94.40
5226;DHT22;2632;51.666;7.146;2022-10-17T11:23:59;18.20;94.40
5226;DHT22;2632;51.666;7.146;2022-10-17T11:26:37;18.20;94.70
5226;DHT22;2632;51.666;7.146;2022-10-17T11:29:05;18.20;94.50
5226;DHT22;2632;51.666;7.146;2022-10-17T11:31:38;18.20;94.50
5226;DHT22;2632;51.666;7.146;2022-10-17T11:34:22;18.20;94.40
5226;DHT22;2632;51.666;7.146;2022-10-17T11:36:54;18.20;94.50
5226;DHT22;2632;51.666;7.146;2022-10-17T11:39:29;18.20;94.40
5226;DHT22;2632;51.666;7.146;2022-10-17T11:42:01;18.10;94.40
5226;DHT22;2632;51.666;7.146;2022-10-17T11:44:38;18.10;94.50
5226;DHT22;2632;51.666;7.146;2022-10-17T11:47:30;18.10;94.60
5226;DHT22;2632;51.666;7.146;2022-10-17T11:53:19;18.10;94.50
5226;DHT22;2632;51.666;7.146;2022-10-17T11:55:46;18.10;94.60
5226;DHT22;2632;51.666;7.146;2022-10-17T12:04:19;18.10;94.50
5226;DHT22;2632;51.666;7.146;2022-10-17T12:12:37;18.10;94.60
5226;DHT22;2632;51.666;7.146;2022-10-17T12:17:45;18.10;94.70
5226;DHT22;2632;51.666;7.146;2022-10-17T12:23:33;18.10;94.80
5226;DHT22;2632;51.666;7.146;2022-10-17T12:25:36;18.10;94.80
5226;DHT22;2632;51.666;7.146;2022-10-17T12:28:10;18.10;94.70
5226;DHT22;2632;51.666;7.146;2022-10-17T12:30:57;18.10;94.70
5226;DHT22;2632;51.666;7.146;2022-10-17T12:33:33;18.10;94.80
5226;DHT22;2632;51.666;7.146;2022-10-17T12:38:47;18.10;94.80
5226;DHT22;2632;51.666;7.146;2022-10-17T12:41:16;18.10;94.90
5226;DHT22;2632;51.666;7.146;2022-10-17T13:02:52;18.10;95.00
5226;DHT22;2632;51.666;7.146;2022-10-17T13:05:26;18.10;95.50
5226;DHT22;2632;51.666;7.146;2022-10-17T13:07:54;18.10;95.40
5226;DHT22;2632;51.666;7.146;2022-10-17T13:10:24;18.10;95.60
5226;DHT22;2632;51.666;7.146;2022-10-17T13:13:06;18.10;95.40
5226;DHT22;2632;51.666;7.146;2022-10-17T13:15:35;18.10;95.30
5226;DHT22;2632;51.666;7.146;2022-10-17T13:18:02;18.10;95.50
5226;DHT22;2632;51.666;7.146;2022-10-17T13:20:30;18.10;95.40
5226;DHT22;2632;51.666;7.146;2022-10-17T13:22:57;18.10;95.30
5226;DHT22;2632;51.666;7.146;2022-10-17T13:25:25;18.10;95.60
5226;DHT22;2632;51.666;7.146;2022-10-17T13:28:04;18.10;95.40
5226;DHT22;2632;51.666;7.146;2022-10-17T13:30:35;18.10;95.50
5226;DHT22;2632;51.666;7.146;2022-10-17T13:33:02;18.10;95.40
5226;DHT22;2632;51.666;7.146;2022-10-17T13:35:32;18.10;95.50
5226;DHT22;2632;51.666;7.146;2022-10-17T13:38:25;18.10;95.40
5226;DHT22;2632;51.666;7.146;2022-10-17T13:40:52;18.10;95.60
5226;DHT22;2632;51.666;7.146;2022-10-17T13:43:31;18.10;95.40
5226;DHT22;2632;51.666;7.146;2022-10-17T13:46:01;18.10;95.80
5226;DHT22;2632;51.666;7.146;2022-10-17T13:48:51;18.10;95.60
5226;DHT22;2632;51.666;7.146;2022-10-17T13:51:17;18.10;95.50
5226;DHT22;2632;51.666;7.146;2022-10-17T13:53:44;18.10;95.60
5226;DHT22;2632;51.666;7.146;2022-10-17T13:56:25;18.10;95.50
5226;DHT22;2632;51.666;7.146;2022-10-17T13:58:57;18.10;95.30
5226;DHT22;2632;51.666;7.146;2022-10-17T14:01:26;18.10;95.90
5226;DHT22;2632;51.666;7.146;2022-10-17T14:03:54;18.10;95.50
5226;DHT22;2632;51.666;7.146;2022-10-17T14:06:42;18.10;95.50
5226;DHT22;2632;51.666;7.146;2022-10-17T14:09:17;18.10;95.40
5226;DHT22;2632;51.666;7.146;2022-10-17T14:11:57;18.10;95.50
5226;DHT22;2632;51.666;7.146;2022-10-17T14:14:25;18.10;95.40
5226;DHT22;2632;51.666;7.146;2022-10-17T14:16:52;18.10;95.50
5226;DHT22;2632;51.666;7.146;2022-10-17T14:19:28;18.10;95.50
5226;DHT22;2632;51.666;7.146;2022-10-17T14:22:16;18.10;95.60
5226;DHT22;2632;51.666;7.146;2022-10-17T14:24:43;18.10;95.70
5226;DHT22;2632;51.666;7.146;2022-10-17T14:29:57;18.10;95.90
5226;DHT22;2632;51.666;7.146;2022-10-17T14:32:27;18.00;95.80
5226;DHT22;2632;51.666;7.146;2022-10-17T14:34:57;18.10;95.60
5226;DHT22;2632;51.666;7.146;2022-10-17T14:37:46;18.10;96.20
5226;DHT22;2632;51.666;7.146;2022-10-17T14:40:22;18.10;95.70
5226;DHT22;2632;51.666;7.146;2022-10-17T14:42:57;18.10;95.70
5226;DHT22;2632;51.666;7.146;2022-10-17T14:45:33;18.10;95.70
5226;DHT22;2632;51.666;7.146;2022-10-17T14:48:08;18.10;95.80
5226;DHT22;2632;51.666;7.146;2022-10-17T14:50:37;18.10;95.80
5226;DHT22;2632;51.666;7.146;2022-10-17T14:55:38;18.10;95.80
5226;DHT22;2632;51.666;7.146;2022-10-17T14:58:16;18.10;95.70
5226;DHT22;2632;51.666;7.146;2022-10-17T15:00:43;18.10;95.80
5226;DHT22;2632;51.666;7.146;2022-10-17T15:03:09;18.10;95.90
5226;DHT22;2632;51.666;7.146;2022-10-17T15:05:36;18.10;95.60
5226;DHT22;2632;51.666;7.146;2022-10-17T15:08:02;18.10;95.60
5226;DHT22;2632;51.666;7.146;2022-10-17T15:10:34;18.10;95.80
5226;DHT22;2632;51.666;7.146;2022-10-17T15:13:01;18.10;95.70
5226;DHT22;2632;51.666;7.146;2022-10-17T15:15:48;18.10;95.70
5226;DHT22;2632;51.666;7.146;2022-10-17T15:18:17;18.10;96.00
5226;DHT22;2632;51.666;7.146;2022-10-17T15:20:43;18.10;95.80
5226;DHT22;2632;51.666;7.146;2022-10-17T15:23:10;18.10;96.00
5226;DHT22;2632;51.666;7.146;2022-10-17T15:25:36;18.10;96.00
5226;DHT22;2632;51.666;7.146;2022-10-17T15:28:04;18.10;96.10
5226;DHT22;2632;51.666;7.146;2022-10-17T15:30:34;18.10;95.90
5226;DHT22;2632;51.666;7.146;2022-10-17T15:33:00;18.10;95.90
5226;DHT22;2632;51.666;7.146;2022-10-17T15:35:27;18.10;95.90
5226;DHT22;2632;51.666;7.146;2022-10-17T15:37:54;18.10;95.60
5226;DHT22;2632;51.666;7.146;2022-10-17T15:40:23;18.10;95.80
5226;DHT22;2632;51.666;7.146;2022-10-17T15:42:50;18.10;95.70
5226;DHT22;2632;51.666;7.146;2022-10-17T15:45:18;18.10;96.00
5226;DHT22;2632;51.666;7.146;2022-10-17T15:47:52;18.10;96.00
5226;DHT22;2632;51.666;7.146;2022-10-17T15:50:19;18.10;95.90
5226;DHT22;2632;51.666;7.146;2022-10-17T15:52:48;18.10;96.20
5226;DHT22;2632;51.666;7.146;2022-10-17T15:55:16;18.10;95.90
5226;DHT22;2632;51.666;7.146;2022-10-17T15:57:45;18.10;95.80
5226;DHT22;2632;51.666;7.146;2022-10-17T16:00:18;18.10;96.00
5226;DHT22;2632;51.666;7.146;2022-10-17T16:02:46;18.10;95.80
5226;DHT22;2632;51.666;7.146;2022-10-17T16:05:19;18.10;96.00
5226;DHT22;2632;51.666;7.146;2022-10-17T16:07:48;18.10;95.90
5226;DHT22;2632;51.666;7.146;2022-10-17T16:10:16;18.10;95.90
5226;DHT22;2632;51.666;7.146;2022-10-17T16:12:42;18.10;95.80
5226;DHT22;2632;51.666;7.146;2022-10-17T16:15:13;18.10;96.00
5226;DHT22;2632;51.666;7.146;2022-10-17T16:17:40;18.10;96.10
5226;DHT22;2632;51.666;7.146;2022-10-17T16:20:07;18.10;96.20
5226;DHT22;2632;51.666;7.146;2022-10-17T16:22:34;18.10;96.10
5226;DHT22;2632;51.666;7.146;2022-10-17T16:25:04;18.10;95.80
5226;DHT22;2632;51.666;7.146;2022-10-17T16:27:36;18.10;96.20
5226;DHT22;2632;51.666;7.146;2022-10-17T16:30:05;18.10;96.20
5226;DHT22;2632;51.666;7.146;2022-10-17T16:32:32;18.10;96.10
5226;DHT22;2632;51.666;7.146;2022-10-17T16:34:59;18.10;96.20
5226;DHT22;2632;51.666;7.146;2022-10-17T16:37:25;18.10;96.10
5226;DHT22;2632;51.666;7.146;2022-10-17T16:39:52;18.10;96.10
5226;DHT22;2632;51.666;7.146;2022-10-17T16:42:19;18.10;96.00
5226;DHT22;2632;51.666;7.146;2022-10-17T16:44:47;18.10;96.00
5226;DHT22;2632;51.666;7.146;2022-10-17T16:47:14;18.00;96.00
5226;DHT22;2632;51.666;7.146;2022-10-17T16:49:41;18.10;96.10
5226;DHT22;2632;51.666;7.146;2022-10-17T16:52:11;18.10;96.10
5226;DHT22;2632;51.666;7.146;2022-10-17T16:54:37;18.10;96.10
5226;DHT22;2632;51.666;7.146;2022-10-17T16:57:04;18.10;96.00
5226;DHT22;2632;51.666;7.146;2022-10-17T16:59:31;18.00;95.80
5226;DHT22;2632;51.666;7.146;2022-10-17T17:01:57;18.10;96.00
5226;DHT22;2632;51.666;7.146;2022-10-17T17:04:24;18.10;96.00
5226;DHT22;2632;51.666;7.146;2022-10-17T17:06:50;18.10;95.70
5226;DHT22;2632;51.666;7.146;2022-10-17T17:09:17;18.20;95.60
5226;DHT22;2632;51.666;7.146;2022-10-17T17:11:44;18.20;95.60
5226;DHT22;2632;51.666;7.146;2022-10-17T17:14:11;18.20;95.60
5226;DHT22;2632;51.666;7.146;2022-10-17T17:16:37;18.20;95.60
5226;DHT22;2632;51.666;7.146;2022-10-17T17:19:06;18.20;95.60
5226;DHT22;2632;51.666;7.146;2022-10-17T17:21:34;18.20;95.60
5226;DHT22;2632;51.666;7.146;2022-10-17T17:24:01;18.20;95.60
5226;DHT22;2632;51.666;7.146;2022-10-17T17:26:31;18.10;95.60
5226;DHT22;2632;51.666;7.146;2022-10-17T17:28:59;18.10;95.60
5226;DHT22;2632;51.666;7.146;2022-10-17T17:31:28;18.10;95.50
5226;DHT22;2632;51.666;7.146;2022-10-17T17:33:55;18.10;95.60
5226;DHT22;2632;51.666;7.146;2022-10-17T17:36:34;18.10;95.60
5226;DHT22;2632;51.666;7.146;2022-10-17T17:39:04;18.10;95.50
5226;DHT22;2632;51.666;7.146;2022-10-17T17:41:32;18.10;95.50
5226;DHT22;2632;51.666;7.146;2022-10-17T17:44:00;18.10;95.50
5226;DHT22;2632;51.666;7.146;2022-10-17T17:46:27;18.10;95.40
5226;DHT22;2632;51.666;7.146;2022-10-17T17:48:54;18.10;95.40
5226;DHT22;2632;51.666;7.146;2022-10-17T17:51:24;18.10;95.40
5226;DHT22;2632;51.666;7.146;2022-10-17T17:53:54;18.10;95.40
5226;DHT22;2632;51.666;7.146;2022-10-17T17:56:24;18.10;95.30
5226;DHT22;2632;51.666;7.146;2022-10-17T17:58:59;18.00;95.30
5226;DHT22;2632;51.666;7.146;2022-10-17T18:01:29;18.10;95.20
5226;DHT22;2632;51.666;7.146;2022-10-17T18:03:57;18.10;95.20
5226;DHT22;2632;51.666;7.146;2022-10-17T18:06:25;18.10;95.30
5226;DHT22;2632;51.666;7.146;2022-10-17T18:08:55;18.10;95.30
5226;DHT22;2632;51.666;7.146;2022-10-17T18:11:23;18.10;95.20
5226;DHT22;2632;51.666;7.146;2022-10-17T18:14:00;18.10;95.20
5226;DHT22;2632;51.666;7.146;2022-10-17T18:16:28;18.10;95.20
5226;DHT22;2632;51.666;7.146;2022-10-17T18:18:55;18.10;95.20
5226;DHT22;2632;51.666;7.146;2022-10-17T18:21:22;18.00;95.10
5226;DHT22;2632;51.666;7.146;2022-10-17T18:23:49;18.00;95.10
5226;DHT22;2632;51.666;7.146;2022-10-17T18:26:17;18.00;95.10